This is the latest recevied weather packets stored in our database for station/object 9M2EVR-2. If no packets are shown the sender has not sent any weather packets the latest 10 day(s).
| Time | Temp. | Humidity | Pressure | Rain* | Wind** | Luminosity | Snow |
|---|---|---|---|---|---|---|---|
| 1777930446 | 37.78° C | 47% | 1006.2 hPa | - | - | - | - |
| 1777929546 | 38.33° C | 46% | 1006 hPa | - | - | - | - |
| 1777928645 | 38.33° C | 45% | 1006 hPa | - | - | - | - |
| 1777927744 | 39.44° C | 44% | 1005.9 hPa | - | - | - | - |
| 1777926843 | 40° C | 42% | 1005.8 hPa | - | - | - | - |
| 1777925942 | 40.56° C | 41% | 1005.9 hPa | - | - | - | - |
| 1777925042 | 41.67° C | 41% | 1006 hPa | - | - | - | - |
| 1777924141 | 42.22° C | 40% | 1006 hPa | - | - | - | - |
| 1777923240 | 42.78° C | 39% | 1006.2 hPa | - | - | - | - |
| 1777922339 | 43.89° C | 38% | 1006.2 hPa | - | - | - | - |
| 1777921438 | 44.44° C | 37% | 1006.3 hPa | - | - | - | - |
| 1777920538 | 45° C | 36% | 1006.5 hPa | - | - | - | - |
| 1777919637 | 45.56° C | 36% | 1006.8 hPa | - | - | - | - |
| 1777918736 | 45.56° C | 36% | 1006.9 hPa | - | - | - | - |
| 1777917835 | 45° C | 37% | 1007.1 hPa | - | - | - | - |
| 1777916934 | 45° C | 37% | 1007.4 hPa | - | - | - | - |
| 1777916034 | 45° C | 38% | 1007.7 hPa | - | - | - | - |
| 1777915133 | 45° C | 39% | 1008.2 hPa | - | - | - | - |
| 1777914232 | 44.44° C | 41% | 1008.4 hPa | - | - | - | - |
| 1777913331 | 43.33° C | 44% | 1008.6 hPa | - | - | - | - |
| 1777912430 | 41.11° C | 51% | 1008.9 hPa | - | - | - | - |
| 1777900465 | 36.67° C | 52% | 1006.9 hPa | - | - | - | - |
| 1777899565 | 36.67° C | 52% | 1006.9 hPa | - | - | - | - |
| 1777898664 | 37.22° C | 51% | 1006.9 hPa | - | - | - | - |
| 1777897763 | 37.22° C | 51% | 1006.8 hPa | - | - | - | - |
* Rain since midnight (hover to see other rain measurements)
** Current wind speed in m/s (hover to see current wind gust speed)